createdAt,value
2022-08-07T00:03:17.289Z,12.5
2022-08-07T00:18:26.649Z,12.5
2022-08-07T00:33:20.639Z,12.5
2022-08-07T00:48:35.905Z,12.5
2022-08-07T01:04:08.746Z,12.5
2022-08-07T01:18:28.059Z,12.5
2022-08-07T01:33:53.891Z,12.5
2022-08-07T01:48:46.555Z,12.5
2022-08-07T02:03:53.584Z,12.5
2022-08-07T02:18:31.412Z,12.5
2022-08-07T02:34:17.701Z,12.5
2022-08-07T02:48:30.093Z,12.5
2022-08-07T03:03:24.307Z,12.4
2022-08-07T03:18:09.308Z,12.4
2022-08-07T03:33:11.391Z,12.4
2022-08-07T03:48:14.025Z,12.4
2022-08-07T04:03:14.909Z,12.4
2022-08-07T04:19:14.916Z,12.4
2022-08-07T04:33:15.593Z,12.4
2022-08-07T04:48:14.157Z,12.4
2022-08-07T05:04:19.305Z,12.4
2022-08-07T05:18:27.255Z,12.4
2022-08-07T05:33:26.248Z,12.4
2022-08-07T05:48:17.143Z,12.4
2022-08-07T06:03:24.296Z,12.4
2022-08-07T06:18:20.259Z,12.5
2022-08-07T06:33:24.955Z,12.5
2022-08-07T06:48:28.792Z,12.5
2022-08-07T07:04:35.015Z,12.5
2022-08-07T07:18:54.943Z,12.5
2022-08-07T07:33:31.586Z,12.6
2022-08-07T07:48:39.190Z,12.7
2022-08-07T08:04:17.838Z,12.8
2022-08-07T08:18:28.145Z,12.9
2022-08-07T08:33:35.997Z,13
2022-08-07T08:48:42.478Z,13.1
2022-08-07T09:03:09.811Z,13.8
2022-08-07T09:18:30.000Z,13.8
2022-08-07T09:34:01.603Z,13.8
2022-08-07T09:48:29.917Z,13.8
2022-08-07T10:04:32.708Z,13.8
2022-08-07T10:18:18.982Z,13.8
2022-08-07T10:33:18.196Z,13.8
2022-08-07T10:48:15.844Z,13.7
2022-08-07T11:03:17.626Z,13.8
2022-08-07T11:18:25.680Z,13.8
2022-08-07T11:33:17.603Z,13.8
2022-08-07T11:48:36.330Z,13.8
2022-08-07T12:03:49.257Z,13.7
2022-08-07T12:18:32.631Z,13.7
2022-08-07T12:34:04.378Z,13.7
2022-08-07T12:48:55.870Z,13.7
2022-08-07T13:04:13.739Z,13.7
2022-08-07T13:18:36.949Z,13.7
2022-08-07T13:34:38.771Z,13.6
2022-08-07T13:48:58.501Z,13.5
2022-08-07T14:04:09.973Z,13.5
2022-08-07T14:18:39.721Z,13.5
2022-08-07T14:33:47.004Z,13.5
2022-08-07T14:48:35.657Z,13.3
2022-08-07T15:03:54.429Z,13.8
2022-08-07T15:18:43.930Z,13.8
2022-08-07T15:33:36.133Z,13.6
2022-08-07T15:48:22.464Z,13.5
2022-08-07T16:04:00.687Z,13.5
2022-08-07T16:18:51.756Z,13.5
2022-08-07T16:34:25.533Z,13.5
2022-08-07T16:48:27.622Z,13.3
2022-08-07T17:04:01.699Z,13.2
2022-08-07T17:18:17.833Z,13.1
2022-08-07T17:35:51.956Z,13
2022-08-07T17:48:14.818Z,13
2022-08-07T18:03:20.996Z,12.9
2022-08-07T18:22:02.868Z,12.9
2022-08-07T18:33:17.546Z,12.8
2022-08-07T18:50:48.555Z,12.8
2022-08-07T19:03:39.998Z,12.8
2022-08-07T19:18:46.890Z,12.7
2022-08-07T19:33:43.428Z,12.7
2022-08-07T19:48:27.699Z,12.7
2022-08-07T20:03:44.584Z,12.6
2022-08-07T20:18:35.864Z,12.6
2022-08-07T20:33:41.376Z,12.6
2022-08-07T20:48:37.370Z,12.6
2022-08-07T21:03:10.687Z,12.5
2022-08-07T21:18:53.200Z,12.5
2022-08-07T21:33:08.589Z,12.5
2022-08-07T21:48:43.768Z,12.5
2022-08-07T22:03:32.280Z,12.5
2022-08-07T22:18:14.884Z,12.5
2022-08-07T22:33:16.917Z,12.5
2022-08-07T22:49:12.772Z,12.5
2022-08-07T23:03:15.857Z,12.5
2022-08-07T23:18:21.500Z,12.4
2022-08-07T23:34:42.047Z,12.4
2022-08-07T23:48:26.083Z,12.4
